sensor_id;sensor_type;location;lat;lon;timestamp;temperature;humidity
66582;SHT31;53438;48.898;2.308;2023-07-29T03:02:10;19.77;78.78
66582;SHT31;53438;48.898;2.308;2023-07-29T03:04:36;19.81;79.32
66582;SHT31;53438;48.898;2.308;2023-07-29T03:07:01;19.92;79.41
66582;SHT31;53438;48.898;2.308;2023-07-29T03:09:27;19.78;79.23
66582;SHT31;53438;48.898;2.308;2023-07-29T03:11:52;19.95;79.15
66582;SHT31;53438;48.898;2.308;2023-07-29T03:14:20;19.66;79.56
66582;SHT31;53438;48.898;2.308;2023-07-29T03:16:45;19.63;80.04
66582;SHT31;53438;48.898;2.308;2023-07-29T03:19:12;19.66;79.82
66582;SHT31;53438;48.898;2.308;2023-07-29T03:21:37;19.73;79.85
66582;SHT31;53438;48.898;2.308;2023-07-29T03:24:03;19.79;79.44
66582;SHT31;53438;48.898;2.308;2023-07-29T03:26:28;19.70;79.87
66582;SHT31;53438;48.898;2.308;2023-07-29T03:28:54;19.68;79.94
66582;SHT31;53438;48.898;2.308;2023-07-29T03:31:19;19.75;79.67
66582;SHT31;53438;48.898;2.308;2023-07-29T03:33:44;19.82;79.80
66582;SHT31;53438;48.898;2.308;2023-07-29T03:36:09;19.74;79.45
66582;SHT31;53438;48.898;2.308;2023-07-29T03:38:35;19.73;79.81
66582;SHT31;53438;48.898;2.308;2023-07-29T03:41:05;19.46;80.45
66582;SHT31;53438;48.898;2.308;2023-07-29T03:43:30;19.58;80.24
66582;SHT31;53438;48.898;2.308;2023-07-29T03:45:55;19.67;79.99
66582;SHT31;53438;48.898;2.308;2023-07-29T03:48:21;19.73;80.01
66582;SHT31;53438;48.898;2.308;2023-07-29T03:50:46;19.37;80.56
66582;SHT31;53438;48.898;2.308;2023-07-29T03:53:11;19.31;80.91
66582;SHT31;53438;48.898;2.308;2023-07-29T03:55:37;19.40;80.84
66582;SHT31;53438;48.898;2.308;2023-07-29T03:58:02;19.30;81.38
66582;SHT31;53438;48.898;2.308;2023-07-29T04:00:27;19.40;80.94
66582;SHT31;53438;48.898;2.308;2023-07-29T04:02:53;19.43;80.80
66582;SHT31;53438;48.898;2.308;2023-07-29T04:05:19;19.49;80.58
66582;SHT31;53438;48.898;2.308;2023-07-29T04:07:44;19.23;81.33
66582;SHT31;53438;48.898;2.308;2023-07-29T04:10:10;19.33;81.03
66582;SHT31;53438;48.898;2.308;2023-07-29T04:12:35;19.36;80.75
66582;SHT31;53438;48.898;2.308;2023-07-29T04:15:01;19.37;80.83
66582;SHT31;53438;48.898;2.308;2023-07-29T04:17:26;19.33;81.18
66582;SHT31;53438;48.898;2.308;2023-07-29T04:19:52;19.39;80.90
66582;SHT31;53438;48.898;2.308;2023-07-29T04:22:17;19.43;80.61
66582;SHT31;53438;48.898;2.308;2023-07-29T04:24:42;19.30;81.09
66582;SHT31;53438;48.898;2.308;2023-07-29T04:27:08;19.24;81.10
66582;SHT31;53438;48.898;2.308;2023-07-29T04:29:33;19.30;80.94
66582;SHT31;53438;48.898;2.308;2023-07-29T04:32:01;19.30;80.79
66582;SHT31;53438;48.898;2.308;2023-07-29T04:34:26;19.23;81.12
66582;SHT31;53438;48.898;2.308;2023-07-29T04:36:52;19.26;81.22
66582;SHT31;53438;48.898;2.308;2023-07-29T04:39:17;19.31;81.08
66582;SHT31;53438;48.898;2.308;2023-07-29T04:41:43;19.20;81.22
66582;SHT31;53438;48.898;2.308;2023-07-29T04:44:09;19.16;80.87
66582;SHT31;53438;48.898;2.308;2023-07-29T04:46:36;19.15;81.25
66582;SHT31;53438;48.898;2.308;2023-07-29T04:49:01;19.06;81.36
66582;SHT31;53438;48.898;2.308;2023-07-29T04:51:27;19.08;81.34
66582;SHT31;53438;48.898;2.308;2023-07-29T04:53:53;19.16;81.29
66582;SHT31;53438;48.898;2.308;2023-07-29T04:56:19;19.19;81.13
66582;SHT31;53438;48.898;2.308;2023-07-29T04:58:44;19.13;80.97
66582;SHT31;53438;48.898;2.308;2023-07-29T05:01:11;19.20;80.88
66582;SHT31;53438;48.898;2.308;2023-07-29T05:03:36;19.15;80.64
66582;SHT31;53438;48.898;2.308;2023-07-29T05:06:02;19.17;80.83
66582;SHT31;53438;48.898;2.308;2023-07-29T05:08:27;19.24;80.49
66582;SHT31;53438;48.898;2.308;2023-07-29T05:10:53;19.22;80.40
66582;SHT31;53438;48.898;2.308;2023-07-29T05:13:22;19.22;80.61
66582;SHT31;53438;48.898;2.308;2023-07-29T05:15:48;19.16;80.62
66582;SHT31;53438;48.898;2.308;2023-07-29T05:18:15;19.23;80.24
66582;SHT31;53438;48.898;2.308;2023-07-29T05:20:41;19.19;80.29
66582;SHT31;53438;48.898;2.308;2023-07-29T05:23:06;19.23;80.46
66582;SHT31;53438;48.898;2.308;2023-07-29T05:25:32;19.31;80.18
66582;SHT31;53438;48.898;2.308;2023-07-29T05:27:57;19.27;80.45
66582;SHT31;53438;48.898;2.308;2023-07-29T05:30:23;19.30;80.19
66582;SHT31;53438;48.898;2.308;2023-07-29T05:32:48;19.36;79.96
66582;SHT31;53438;48.898;2.308;2023-07-29T05:35:14;19.31;79.88
66582;SHT31;53438;48.898;2.308;2023-07-29T05:37:40;19.40;79.68
66582;SHT31;53438;48.898;2.308;2023-07-29T05:40:07;19.40;79.24
66582;SHT31;53438;48.898;2.308;2023-07-29T05:42:33;19.51;79.31
66582;SHT31;53438;48.898;2.308;2023-07-29T05:44:59;19.54;79.02
66582;SHT31;53438;48.898;2.308;2023-07-29T05:47:24;19.58;78.87
66582;SHT31;53438;48.898;2.308;2023-07-29T05:49:49;19.56;79.18
66582;SHT31;53438;48.898;2.308;2023-07-29T05:52:15;19.64;78.78
66582;SHT31;53438;48.898;2.308;2023-07-29T05:54:40;19.53;79.47
66582;SHT31;53438;48.898;2.308;2023-07-29T05:57:09;19.58;78.78
66582;SHT31;53438;48.898;2.308;2023-07-29T05:59:34;19.63;78.77
66582;SHT31;53438;48.898;2.308;2023-07-29T06:01:59;19.61;78.89
66582;SHT31;53438;48.898;2.308;2023-07-29T06:04:25;19.67;78.81
66582;SHT31;53438;48.898;2.308;2023-07-29T06:06:50;19.61;79.14
66582;SHT31;53438;48.898;2.308;2023-07-29T06:09:15;19.54;79.11
66582;SHT31;53438;48.898;2.308;2023-07-29T06:11:41;19.56;78.89
66582;SHT31;53438;48.898;2.308;2023-07-29T06:14:06;19.46;79.30
66582;SHT31;53438;48.898;2.308;2023-07-29T06:16:31;19.67;79.06
66582;SHT31;53438;48.898;2.308;2023-07-29T06:18:57;19.75;78.34
66582;SHT31;53438;48.898;2.308;2023-07-29T06:21:22;19.88;77.96
66582;SHT31;53438;48.898;2.308;2023-07-29T06:23:48;19.58;78.63
66582;SHT31;53438;48.898;2.308;2023-07-29T06:26:13;19.78;78.56
66582;SHT31;53438;48.898;2.308;2023-07-29T06:28:38;19.74;77.72
66582;SHT31;53438;48.898;2.308;2023-07-29T06:31:04;19.88;77.84
66582;SHT31;53438;48.898;2.308;2023-07-29T06:33:29;19.84;77.55
66582;SHT31;53438;48.898;2.308;2023-07-29T06:35:54;19.84;77.38
66582;SHT31;53438;48.898;2.308;2023-07-29T06:38:20;19.88;77.20
66582;SHT31;53438;48.898;2.308;2023-07-29T06:40:50;19.81;77.09
66582;SHT31;53438;48.898;2.308;2023-07-29T06:43:15;20.07;76.43
66582;SHT31;53438;48.898;2.308;2023-07-29T06:45:41;20.15;75.72
66582;SHT31;53438;48.898;2.308;2023-07-29T06:48:06;19.98;76.37
66582;SHT31;53438;48.898;2.308;2023-07-29T06:50:32;19.87;76.41
66582;SHT31;53438;48.898;2.308;2023-07-29T06:52:57;20.14;75.92
66582;SHT31;53438;48.898;2.308;2023-07-29T06:55:22;20.19;75.51
66582;SHT31;53438;48.898;2.308;2023-07-29T06:57:48;20.45;74.90
66582;SHT31;53438;48.898;2.308;2023-07-29T07:00:13;20.15;75.71
66582;SHT31;53438;48.898;2.308;2023-07-29T07:02:39;20.39;74.86
66582;SHT31;53438;48.898;2.308;2023-07-29T07:05:04;20.12;76.13
66582;SHT31;53438;48.898;2.308;2023-07-29T07:07:30;20.43;75.41
66582;SHT31;53438;48.898;2.308;2023-07-29T07:09:56;19.98;75.71
66582;SHT31;53438;48.898;2.308;2023-07-29T07:12:21;20.18;75.24
66582;SHT31;53438;48.898;2.308;2023-07-29T07:14:47;20.18;74.96
66582;SHT31;53438;48.898;2.308;2023-07-29T07:17:12;20.21;75.48
66582;SHT31;53438;48.898;2.308;2023-07-29T07:19:37;20.14;75.52
66582;SHT31;53438;48.898;2.308;2023-07-29T07:22:03;20.22;75.43
66582;SHT31;53438;48.898;2.308;2023-07-29T07:24:29;20.33;75.29
66582;SHT31;53438;48.898;2.308;2023-07-29T07:26:54;20.46;74.79
66582;SHT31;53438;48.898;2.308;2023-07-29T07:29:19;20.45;74.80
66582;SHT31;53438;48.898;2.308;2023-07-29T07:31:50;20.50;74.75
66582;SHT31;53438;48.898;2.308;2023-07-29T07:34:17;20.36;75.08
66582;SHT31;53438;48.898;2.308;2023-07-29T07:36:43;20.21;75.21
66582;SHT31;53438;48.898;2.308;2023-07-29T07:39:08;20.33;75.31
66582;SHT31;53438;48.898;2.308;2023-07-29T07:41:33;20.35;75.65
66582;SHT31;53438;48.898;2.308;2023-07-29T07:43:58;20.39;75.30
66582;SHT31;53438;48.898;2.308;2023-07-29T07:46:24;20.42;75.29
66582;SHT31;53438;48.898;2.308;2023-07-29T07:48:49;20.45;74.95
66582;SHT31;53438;48.898;2.308;2023-07-29T07:51:14;20.46;74.96
66582;SHT31;53438;48.898;2.308;2023-07-29T07:53:40;20.63;74.83
66582;SHT31;53438;48.898;2.308;2023-07-29T07:56:06;20.70;74.39
66582;SHT31;53438;48.898;2.308;2023-07-29T07:58:32;20.90;74.36
66582;SHT31;53438;48.898;2.308;2023-07-29T08:01:04;20.91;73.80
66582;SHT31;53438;48.898;2.308;2023-07-29T08:03:32;20.66;73.89
66582;SHT31;53438;48.898;2.308;2023-07-29T08:05:57;20.88;73.79
66582;SHT31;53438;48.898;2.308;2023-07-29T08:08:23;20.93;73.57
66582;SHT31;53438;48.898;2.308;2023-07-29T08:10:48;21.05;73.19
66582;SHT31;53438;48.898;2.308;2023-07-29T08:13:13;21.15;72.97
66582;SHT31;53438;48.898;2.308;2023-07-29T08:15:39;21.30;72.22
66582;SHT31;53438;48.898;2.308;2023-07-29T08:18:06;21.07;73.01
66582;SHT31;53438;48.898;2.308;2023-07-29T08:20:31;21.25;72.83
66582;SHT31;53438;48.898;2.308;2023-07-29T08:22:58;21.30;72.16
66582;SHT31;53438;48.898;2.308;2023-07-29T08:25:23;21.35;71.95
66582;SHT31;53438;48.898;2.308;2023-07-29T08:27:48;21.32;72.02
66582;SHT31;53438;48.898;2.308;2023-07-29T08:30:14;21.38;72.10
66582;SHT31;53438;48.898;2.308;2023-07-29T08:32:41;21.48;72.48
66582;SHT31;53438;48.898;2.308;2023-07-29T08:35:06;21.39;72.24
66582;SHT31;53438;48.898;2.308;2023-07-29T08:37:32;21.44;71.78
66582;SHT31;53438;48.898;2.308;2023-07-29T08:39:57;21.27;71.92
66582;SHT31;53438;48.898;2.308;2023-07-29T08:42:23;21.37;71.83
66582;SHT31;53438;48.898;2.308;2023-07-29T08:44:49;21.38;72.45
66582;SHT31;53438;48.898;2.308;2023-07-29T08:47:16;21.51;71.72
66582;SHT31;53438;48.898;2.308;2023-07-29T08:49:42;21.72;71.38
66582;SHT31;53438;48.898;2.308;2023-07-29T08:52:08;21.75;70.70
66582;SHT31;53438;48.898;2.308;2023-07-29T08:54:35;21.79;71.38
66582;SHT31;53438;48.898;2.308;2023-07-29T08:57:00;21.66;71.29
66582;SHT31;53438;48.898;2.308;2023-07-29T08:59:26;21.81;70.67
66582;SHT31;53438;48.898;2.308;2023-07-29T09:01:53;21.93;69.99
66582;SHT31;53438;48.898;2.308;2023-07-29T09:04:20;22.03;69.88
66582;SHT31;53438;48.898;2.308;2023-07-29T09:06:47;22.14;70.46
66582;SHT31;53438;48.898;2.308;2023-07-29T09:09:15;22.33;69.07
66582;SHT31;53438;48.898;2.308;2023-07-29T09:11:40;22.26;68.50
66582;SHT31;53438;48.898;2.308;2023-07-29T09:14:06;22.53;68.45
66582;SHT31;53438;48.898;2.308;2023-07-29T09:16:32;22.54;67.85
66582;SHT31;53438;48.898;2.308;2023-07-29T09:19:01;22.71;67.54
66582;SHT31;53438;48.898;2.308;2023-07-29T09:21:29;22.79;67.19
66582;SHT31;53438;48.898;2.308;2023-07-29T09:23:55;22.88;67.13
66582;SHT31;53438;48.898;2.308;2023-07-29T09:26:27;22.84;66.96
66582;SHT31;53438;48.898;2.308;2023-07-29T09:28:57;22.68;67.97
66582;SHT31;53438;48.898;2.308;2023-07-29T09:31:24;22.67;67.62
66582;SHT31;53438;48.898;2.308;2023-07-29T09:33:55;22.65;67.93
66582;SHT31;53438;48.898;2.308;2023-07-29T09:36:22;22.72;68.29
66582;SHT31;53438;48.898;2.308;2023-07-29T09:38:47;22.75;67.90
66582;SHT31;53438;48.898;2.308;2023-07-29T09:41:13;22.67;67.97
66582;SHT31;53438;48.898;2.308;2023-07-29T09:43:43;22.54;68.51
66582;SHT31;53438;48.898;2.308;2023-07-29T09:46:08;22.57;67.99
66582;SHT31;53438;48.898;2.308;2023-07-29T09:48:35;22.63;67.99
66582;SHT31;53438;48.898;2.308;2023-07-29T09:51:10;22.55;67.80
66582;SHT31;53438;48.898;2.308;2023-07-29T09:53:40;22.54;68.09
66582;SHT31;53438;48.898;2.308;2023-07-29T09:56:06;22.51;67.86
66582;SHT31;53438;48.898;2.308;2023-07-29T09:58:32;22.58;67.94
66582;SHT31;53438;48.898;2.308;2023-07-29T10:00:58;22.61;67.46
66582;SHT31;53438;48.898;2.308;2023-07-29T10:03:24;22.69;67.55
66582;SHT31;53438;48.898;2.308;2023-07-29T10:05:50;22.72;67.21
66582;SHT31;53438;48.898;2.308;2023-07-29T10:08:16;22.79;67.95
66582;SHT31;53438;48.898;2.308;2023-07-29T10:10:42;22.82;67.59
66582;SHT31;53438;48.898;2.308;2023-07-29T10:13:09;22.79;67.42
66582;SHT31;53438;48.898;2.308;2023-07-29T10:15:35;22.85;67.63
66582;SHT31;53438;48.898;2.308;2023-07-29T10:18:02;22.85;67.99
66582;SHT31;53438;48.898;2.308;2023-07-29T10:20:30;22.96;68.02
66582;SHT31;53438;48.898;2.308;2023-07-29T10:22:59;23.02;67.27
66582;SHT31;53438;48.898;2.308;2023-07-29T10:25:25;23.02;67.72
66582;SHT31;53438;48.898;2.308;2023-07-29T10:27:58;22.96;67.72
66582;SHT31;53438;48.898;2.308;2023-07-29T10:30:25;22.95;67.52
66582;SHT31;53438;48.898;2.308;2023-07-29T10:32:51;22.88;67.06
66582;SHT31;53438;48.898;2.308;2023-07-29T10:35:17;22.88;67.30
66582;SHT31;53438;48.898;2.308;2023-07-29T10:37:43;22.84;68.40
66582;SHT31;53438;48.898;2.308;2023-07-29T10:40:10;22.87;68.17
66582;SHT31;53438;48.898;2.308;2023-07-29T10:42:40;22.98;68.08
66582;SHT31;53438;48.898;2.308;2023-07-29T10:45:22;22.99;67.72
66582;SHT31;53438;48.898;2.308;2023-07-29T10:47:47;23.01;68.53
66582;SHT31;53438;48.898;2.308;2023-07-29T10:50:21;23.03;67.62
66582;SHT31;53438;48.898;2.308;2023-07-29T10:52:51;23.06;67.73
66582;SHT31;53438;48.898;2.308;2023-07-29T10:55:28;23.16;67.67
66582;SHT31;53438;48.898;2.308;2023-07-29T10:58:14;23.29;67.43
66582;SHT31;53438;48.898;2.308;2023-07-29T11:00:46;23.26;67.62
66582;SHT31;53438;48.898;2.308;2023-07-29T11:03:13;23.34;67.12
66582;SHT31;53438;48.898;2.308;2023-07-29T11:05:51;23.49;67.53
66582;SHT31;53438;48.898;2.308;2023-07-29T11:08:21;23.54;66.84
66582;SHT31;53438;48.898;2.308;2023-07-29T11:11:06;23.73;65.98
66582;SHT31;53438;48.898;2.308;2023-07-29T11:13:36;23.74;65.78
66582;SHT31;53438;48.898;2.308;2023-07-29T11:16:02;23.93;65.86
66582;SHT31;53438;48.898;2.308;2023-07-29T11:18:33;23.96;65.14
66582;SHT31;53438;48.898;2.308;2023-07-29T11:21:00;24.04;65.15
66582;SHT31;53438;48.898;2.308;2023-07-29T11:23:36;23.94;65.60
66582;SHT31;53438;48.898;2.308;2023-07-29T11:26:03;23.81;65.69
66582;SHT31;53438;48.898;2.308;2023-07-29T11:28:28;23.73;66.54
66582;SHT31;53438;48.898;2.308;2023-07-29T11:30:55;23.74;66.65
66582;SHT31;53438;48.898;2.308;2023-07-29T11:33:23;23.69;67.24
66582;SHT31;53438;48.898;2.308;2023-07-29T11:35:49;23.63;67.62
66582;SHT31;53438;48.898;2.308;2023-07-29T11:38:15;23.64;67.74
66582;SHT31;53438;48.898;2.308;2023-07-29T11:40:41;23.60;67.74
66582;SHT31;53438;48.898;2.308;2023-07-29T11:43:07;23.57;67.86
66582;SHT31;53438;48.898;2.308;2023-07-29T11:45:33;23.52;67.92
66582;SHT31;53438;48.898;2.308;2023-07-29T11:48:01;23.64;67.70
66582;SHT31;53438;48.898;2.308;2023-07-29T11:50:26;23.83;67.04
66582;SHT31;53438;48.898;2.308;2023-07-29T11:52:52;23.84;66.35
66582;SHT31;53438;48.898;2.308;2023-07-29T11:55:17;23.93;67.24
66582;SHT31;53438;48.898;2.308;2023-07-29T11:57:44;24.11;66.59
66582;SHT31;53438;48.898;2.308;2023-07-29T12:00:10;24.14;65.31
66582;SHT31;53438;48.898;2.308;2023-07-29T12:02:38;24.12;65.66
66582;SHT31;53438;48.898;2.308;2023-07-29T12:05:05;24.07;65.14
66582;SHT31;53438;48.898;2.308;2023-07-29T12:07:31;24.02;65.92
66582;SHT31;53438;48.898;2.308;2023-07-29T12:09:57;23.98;65.73
66582;SHT31;53438;48.898;2.308;2023-07-29T12:12:22;23.85;66.20
66582;SHT31;53438;48.898;2.308;2023-07-29T12:14:48;23.84;66.64
66582;SHT31;53438;48.898;2.308;2023-07-29T12:17:14;23.84;66.73
66582;SHT31;53438;48.898;2.308;2023-07-29T12:19:41;23.96;67.36
66582;SHT31;53438;48.898;2.308;2023-07-29T12:22:08;24.22;66.44
66582;SHT31;53438;48.898;2.308;2023-07-29T12:24:36;24.33;64.99
66582;SHT31;53438;48.898;2.308;2023-07-29T12:27:02;24.33;64.30
66582;SHT31;53438;48.898;2.308;2023-07-29T12:29:27;24.49;65.66
66582;SHT31;53438;48.898;2.308;2023-07-29T12:32:01;24.61;65.76
66582;SHT31;53438;48.898;2.308;2023-07-29T12:34:28;24.56;65.29
66582;SHT31;53438;48.898;2.308;2023-07-29T12:36:55;24.55;65.48
66582;SHT31;53438;48.898;2.308;2023-07-29T12:39:23;24.61;65.34
66582;SHT31;53438;48.898;2.308;2023-07-29T12:41:49;24.72;66.04
66582;SHT31;53438;48.898;2.308;2023-07-29T12:44:14;24.80;65.28
66582;SHT31;53438;48.898;2.308;2023-07-29T12:46:40;24.80;65.15
66582;SHT31;53438;48.898;2.308;2023-07-29T12:49:05;24.68;66.54
66582;SHT31;53438;48.898;2.308;2023-07-29T12:51:31;24.56;66.11
66582;SHT31;53438;48.898;2.308;2023-07-29T12:53:56;24.68;66.23
66582;SHT31;53438;48.898;2.308;2023-07-29T12:56:22;24.72;66.17
66582;SHT31;53438;48.898;2.308;2023-07-29T12:58:47;24.86;65.61
66582;SHT31;53438;48.898;2.308;2023-07-29T13:01:13;24.72;64.20
66582;SHT31;53438;48.898;2.308;2023-07-29T13:03:42;24.72;65.50
66582;SHT31;53438;48.898;2.308;2023-07-29T13:06:07;24.75;64.06
66582;SHT31;53438;48.898;2.308;2023-07-29T13:08:33;24.83;63.93
66582;SHT31;53438;48.898;2.308;2023-07-29T13:10:58;24.84;64.89
66582;SHT31;53438;48.898;2.308;2023-07-29T13:13:23;24.86;64.41
66582;SHT31;53438;48.898;2.308;2023-07-29T13:15:51;24.77;64.72
66582;SHT31;53438;48.898;2.308;2023-07-29T13:18:16;24.73;65.60
66582;SHT31;53438;48.898;2.308;2023-07-29T13:20:41;24.82;64.87
66582;SHT31;53438;48.898;2.308;2023-07-29T13:23:08;24.91;63.90
66582;SHT31;53438;48.898;2.308;2023-07-29T13:25:34;25.19;62.94
66582;SHT31;53438;48.898;2.308;2023-07-29T13:27:59;25.14;63.78
66582;SHT31;53438;48.898;2.308;2023-07-29T13:30:24;25.26;61.85
66582;SHT31;53438;48.898;2.308;2023-07-29T13:32:50;25.23;62.39
66582;SHT31;53438;48.898;2.308;2023-07-29T13:35:15;25.28;62.61
66582;SHT31;53438;48.898;2.308;2023-07-29T13:37:40;25.30;62.32
66582;SHT31;53438;48.898;2.308;2023-07-29T13:40:06;25.34;61.37
66582;SHT31;53438;48.898;2.308;2023-07-29T13:42:32;25.34;61.13
66582;SHT31;53438;48.898;2.308;2023-07-29T13:44:57;25.44;60.00
66582;SHT31;53438;48.898;2.308;2023-07-29T13:47:22;25.62;59.39
66582;SHT31;53438;48.898;2.308;2023-07-29T13:49:48;25.61;60.18
66582;SHT31;53438;48.898;2.308;2023-07-29T13:52:14;25.65;60.11
66582;SHT31;53438;48.898;2.308;2023-07-29T13:54:39;25.67;60.06
66582;SHT31;53438;48.898;2.308;2023-07-29T13:57:04;25.81;59.94
66582;SHT31;53438;48.898;2.308;2023-07-29T13:59:32;25.58;61.38
66582;SHT31;53438;48.898;2.308;2023-07-29T14:01:57;25.54;61.50
66582;SHT31;53438;48.898;2.308;2023-07-29T14:04:25;25.40;61.39
66582;SHT31;53438;48.898;2.308;2023-07-29T14:06:50;25.55;61.14
66582;SHT31;53438;48.898;2.308;2023-07-29T14:09:16;25.45;61.33
66582;SHT31;53438;48.898;2.308;2023-07-29T14:11:41;25.67;61.35
66582;SHT31;53438;48.898;2.308;2023-07-29T14:14:07;25.71;60.34
66582;SHT31;53438;48.898;2.308;2023-07-29T14:16:33;25.61;60.80
66582;SHT31;53438;48.898;2.308;2023-07-29T14:18:58;25.74;60.71
66582;SHT31;53438;48.898;2.308;2023-07-29T14:21:23;25.68;60.95
66582;SHT31;53438;48.898;2.308;2023-07-29T14:23:49;25.71;60.66
66582;SHT31;53438;48.898;2.308;2023-07-29T14:26:14;25.75;60.05
66582;SHT31;53438;48.898;2.308;2023-07-29T14:28:40;25.72;59.71
66582;SHT31;53438;48.898;2.308;2023-07-29T14:31:05;25.99;58.86
66582;SHT31;53438;48.898;2.308;2023-07-29T14:33:30;25.98;59.53
66582;SHT31;53438;48.898;2.308;2023-07-29T14:35:56;25.78;59.74
66582;SHT31;53438;48.898;2.308;2023-07-29T14:38:21;25.67;59.64
66582;SHT31;53438;48.898;2.308;2023-07-29T14:40:47;25.61;59.63
66582;SHT31;53438;48.898;2.308;2023-07-29T14:43:13;25.52;59.66
66582;SHT31;53438;48.898;2.308;2023-07-29T14:45:38;25.41;61.64
66582;SHT31;53438;48.898;2.308;2023-07-29T14:48:04;25.45;60.33
66582;SHT31;53438;48.898;2.308;2023-07-29T14:50:30;25.31;62.05
66582;SHT31;53438;48.898;2.308;2023-07-29T14:52:55;25.21;62.01
66582;SHT31;53438;48.898;2.308;2023-07-29T14:55:20;25.20;62.41
66582;SHT31;53438;48.898;2.308;2023-07-29T14:57:45;25.28;61.89
66582;SHT31;53438;48.898;2.308;2023-07-29T15:00:11;25.07;64.88
66582;SHT31;53438;48.898;2.308;2023-07-29T15:02:37;24.80;69.12
66582;SHT31;53438;48.898;2.308;2023-07-29T15:05:03;24.32;72.74
66582;SHT31;53438;48.898;2.308;2023-07-29T15:07:28;24.39;72.78
66582;SHT31;53438;48.898;2.308;2023-07-29T15:09:54;24.41;73.38
66582;SHT31;53438;48.898;2.308;2023-07-29T15:12:19;24.39;72.54
66582;SHT31;53438;48.898;2.308;2023-07-29T15:14:44;24.59;71.34
66582;SHT31;53438;48.898;2.308;2023-07-29T15:17:12;24.80;71.36
66582;SHT31;53438;48.898;2.308;2023-07-29T15:19:38;24.99;70.96
66582;SHT31;53438;48.898;2.308;2023-07-29T15:22:04;25.09;70.09
66582;SHT31;53438;48.898;2.308;2023-07-29T15:24:30;24.99;69.48
66582;SHT31;53438;48.898;2.308;2023-07-29T15:26:55;24.90;70.10
66582;SHT31;53438;48.898;2.308;2023-07-29T15:29:21;24.89;71.37
66582;SHT31;53438;48.898;2.308;2023-07-29T15:31:46;24.87;71.14
66582;SHT31;53438;48.898;2.308;2023-07-29T15:34:12;24.70;69.89
66582;SHT31;53438;48.898;2.308;2023-07-29T15:36:37;24.75;70.18
66582;SHT31;53438;48.898;2.308;2023-07-29T15:39:02;24.63;70.90
66582;SHT31;53438;48.898;2.308;2023-07-29T15:41:31;24.53;70.17
66582;SHT31;53438;48.898;2.308;2023-07-29T15:43:57;24.58;70.71
66582;SHT31;53438;48.898;2.308;2023-07-29T15:46:23;24.69;70.10
66582;SHT31;53438;48.898;2.308;2023-07-29T15:48:48;24.68;71.06
66582;SHT31;53438;48.898;2.308;2023-07-29T15:51:14;24.62;71.76
66582;SHT31;53438;48.898;2.308;2023-07-29T15:53:39;24.10;70.22
66582;SHT31;53438;48.898;2.308;2023-07-29T15:56:04;24.18;70.18
66582;SHT31;53438;48.898;2.308;2023-07-29T15:58:30;24.08;70.35
66582;SHT31;53438;48.898;2.308;2023-07-29T16:00:55;24.15;70.88
66582;SHT31;53438;48.898;2.308;2023-07-29T16:03:20;24.20;71.75
66582;SHT31;53438;48.898;2.308;2023-07-29T16:05:48;24.26;71.75
66582;SHT31;53438;48.898;2.308;2023-07-29T16:08:14;24.29;71.45
66582;SHT31;53438;48.898;2.308;2023-07-29T16:10:39;24.25;72.14
66582;SHT31;53438;48.898;2.308;2023-07-29T16:13:04;24.25;72.11
66582;SHT31;53438;48.898;2.308;2023-07-29T16:15:31;24.25;73.33
66582;SHT31;53438;48.898;2.308;2023-07-29T16:17:56;24.22;74.46
66582;SHT31;53438;48.898;2.308;2023-07-29T16:20:23;24.18;74.65
66582;SHT31;53438;48.898;2.308;2023-07-29T16:22:49;24.20;75.12
66582;SHT31;53438;48.898;2.308;2023-07-29T16:25:14;24.18;75.10
66582;SHT31;53438;48.898;2.308;2023-07-29T16:27:39;24.14;74.01
66582;SHT31;53438;48.898;2.308;2023-07-29T16:30:05;24.07;73.03
66582;SHT31;53438;48.898;2.308;2023-07-29T16:32:31;24.10;73.23
66582;SHT31;53438;48.898;2.308;2023-07-29T16:34:56;24.00;71.68
66582;SHT31;53438;48.898;2.308;2023-07-29T16:37:22;24.01;72.75
66582;SHT31;53438;48.898;2.308;2023-07-29T16:39:47;24.01;73.25
66582;SHT31;53438;48.898;2.308;2023-07-29T16:42:12;23.93;72.88
66582;SHT31;53438;48.898;2.308;2023-07-29T16:44:38;23.87;73.01
66582;SHT31;53438;48.898;2.308;2023-07-29T16:47:05;23.84;73.27
66582;SHT31;53438;48.898;2.308;2023-07-29T16:49:31;23.87;72.92
66582;SHT31;53438;48.898;2.308;2023-07-29T16:51:56;23.85;73.31
66582;SHT31;53438;48.898;2.308;2023-07-29T16:54:21;23.87;73.22
66582;SHT31;53438;48.898;2.308;2023-07-29T16:56:47;23.63;73.77
66582;SHT31;53438;48.898;2.308;2023-07-29T16:59:13;23.75;73.46
66582;SHT31;53438;48.898;2.308;2023-07-29T17:01:38;23.67;72.37
66582;SHT31;53438;48.898;2.308;2023-07-29T17:04:04;23.80;73.95
66582;SHT31;53438;48.898;2.308;2023-07-29T17:06:29;23.80;73.21
66582;SHT31;53438;48.898;2.308;2023-07-29T17:08:54;23.75;72.25
66582;SHT31;53438;48.898;2.308;2023-07-29T17:11:20;23.80;73.86
66582;SHT31;53438;48.898;2.308;2023-07-29T17:13:45;23.87;72.97
66582;SHT31;53438;48.898;2.308;2023-07-29T17:16:10;23.81;72.59
66582;SHT31;53438;48.898;2.308;2023-07-29T17:18:36;23.78;71.99
66582;SHT31;53438;48.898;2.308;2023-07-29T17:21:03;23.71;70.43
66582;SHT31;53438;48.898;2.308;2023-07-29T17:23:28;23.71;69.08
66582;SHT31;53438;48.898;2.308;2023-07-29T17:25:53;23.74;67.85
66582;SHT31;53438;48.898;2.308;2023-07-29T17:28:19;23.73;67.72
66582;SHT31;53438;48.898;2.308;2023-07-29T17:30:48;23.84;68.89
66582;SHT31;53438;48.898;2.308;2023-07-29T17:33:14;23.88;69.04
66582;SHT31;53438;48.898;2.308;2023-07-29T17:35:43;23.90;68.07
66582;SHT31;53438;48.898;2.308;2023-07-29T17:38:08;23.91;68.10
66582;SHT31;53438;48.898;2.308;2023-07-29T17:40:35;23.93;67.78
66582;SHT31;53438;48.898;2.308;2023-07-29T17:43:00;23.77;66.12
66582;SHT31;53438;48.898;2.308;2023-07-29T17:45:25;23.85;66.65
66582;SHT31;53438;48.898;2.308;2023-07-29T17:47:51;23.91;67.54
66582;SHT31;53438;48.898;2.308;2023-07-29T17:50:16;23.88;66.77
66582;SHT31;53438;48.898;2.308;2023-07-29T17:52:41;23.88;66.87
66582;SHT31;53438;48.898;2.308;2023-07-29T17:55:07;23.88;66.77
66582;SHT31;53438;48.898;2.308;2023-07-29T17:57:32;23.75;67.11
66582;SHT31;53438;48.898;2.308;2023-07-29T17:59:58;23.66;67.07
66582;SHT31;53438;48.898;2.308;2023-07-29T18:02:23;23.71;67.40
66582;SHT31;53438;48.898;2.308;2023-07-29T18:04:48;23.69;67.22
66582;SHT31;53438;48.898;2.308;2023-07-29T18:07:14;23.66;67.11
66582;SHT31;53438;48.898;2.308;2023-07-29T18:09:39;23.60;66.87
66582;SHT31;53438;48.898;2.308;2023-07-29T18:12:05;23.59;66.98
66582;SHT31;53438;48.898;2.308;2023-07-29T18:14:30;23.60;67.26
66582;SHT31;53438;48.898;2.308;2023-07-29T18:16:56;23.57;67.71
66582;SHT31;53438;48.898;2.308;2023-07-29T18:19:21;23.59;67.31
66582;SHT31;53438;48.898;2.308;2023-07-29T18:21:47;23.54;67.51
66582;SHT31;53438;48.898;2.308;2023-07-29T18:24:12;23.45;67.83